sensor_id;sensor_type;location;lat;lon;timestamp;temperature;humidity
58261;DHT22;44058;52.898;6.502;2022-10-18T00:00:47;13.70;99.90
58261;DHT22;44058;52.898;6.502;2022-10-18T00:03:13;13.70;99.90
58261;DHT22;44058;52.898;6.502;2022-10-18T00:05:39;13.70;99.90
58261;DHT22;44058;52.898;6.502;2022-10-18T00:08:05;13.70;99.90
58261;DHT22;44058;52.898;6.502;2022-10-18T00:10:31;13.70;99.90
58261;DHT22;44058;52.898;6.502;2022-10-18T00:12:56;13.70;99.90
58261;DHT22;44058;52.898;6.502;2022-10-18T00:15:22;13.70;99.90
58261;DHT22;44058;52.898;6.502;2022-10-18T00:17:47;13.70;99.90
58261;DHT22;44058;52.898;6.502;2022-10-18T00:20:13;13.70;99.90
58261;DHT22;44058;52.898;6.502;2022-10-18T00:22:39;13.70;99.90
58261;DHT22;44058;52.898;6.502;2022-10-18T00:25:06;13.70;99.90
58261;DHT22;44058;52.898;6.502;2022-10-18T00:27:32;13.70;99.90
58261;DHT22;44058;52.898;6.502;2022-10-18T00:29:58;13.70;99.90
58261;DHT22;44058;52.898;6.502;2022-10-18T00:32:23;13.70;99.90
58261;DHT22;44058;52.898;6.502;2022-10-18T00:34:49;13.70;99.90
58261;DHT22;44058;52.898;6.502;2022-10-18T00:37:15;13.80;99.90
58261;DHT22;44058;52.898;6.502;2022-10-18T00:39:41;13.70;99.90
58261;DHT22;44058;52.898;6.502;2022-10-18T00:42:08;13.70;99.90
58261;DHT22;44058;52.898;6.502;2022-10-18T00:47:05;13.80;99.90
58261;DHT22;44058;52.898;6.502;2022-10-18T00:49:32;13.80;99.90
58261;DHT22;44058;52.898;6.502;2022-10-18T00:52:11;13.80;99.90
58261;DHT22;44058;52.898;6.502;2022-10-18T00:54:38;13.80;99.90
58261;DHT22;44058;52.898;6.502;2022-10-18T00:57:04;13.80;99.90
58261;DHT22;44058;52.898;6.502;2022-10-18T00:59:30;13.70;99.90
58261;DHT22;44058;52.898;6.502;2022-10-18T01:01:56;13.70;99.90
58261;DHT22;44058;52.898;6.502;2022-10-18T01:04:21;13.70;99.90
58261;DHT22;44058;52.898;6.502;2022-10-18T01:09:28;13.70;99.90
58261;DHT22;44058;52.898;6.502;2022-10-18T01:14:41;13.70;99.90
58261;DHT22;44058;52.898;6.502;2022-10-18T01:17:14;13.70;99.90
58261;DHT22;44058;52.898;6.502;2022-10-18T01:19:52;13.70;99.90
58261;DHT22;44058;52.898;6.502;2022-10-18T01:22:35;13.80;99.90
58261;DHT22;44058;52.898;6.502;2022-10-18T01:25:15;13.70;99.90
58261;DHT22;44058;52.898;6.502;2022-10-18T01:27:58;13.70;99.90
58261;DHT22;44058;52.898;6.502;2022-10-18T01:30:39;13.70;99.90
58261;DHT22;44058;52.898;6.502;2022-10-18T01:33:09;13.70;99.90
58261;DHT22;44058;52.898;6.502;2022-10-18T01:35:38;13.70;99.90
58261;DHT22;44058;52.898;6.502;2022-10-18T01:38:06;13.60;99.90
58261;DHT22;44058;52.898;6.502;2022-10-18T01:40:35;13.50;99.90
58261;DHT22;44058;52.898;6.502;2022-10-18T01:43:02;13.50;99.90
58261;DHT22;44058;52.898;6.502;2022-10-18T01:45:29;13.40;99.90
58261;DHT22;44058;52.898;6.502;2022-10-18T01:47:56;13.40;99.90
58261;DHT22;44058;52.898;6.502;2022-10-18T01:50:29;13.40;99.90
58261;DHT22;44058;52.898;6.502;2022-10-18T01:52:54;13.30;99.90
58261;DHT22;44058;52.898;6.502;2022-10-18T01:55:22;13.30;99.90
58261;DHT22;44058;52.898;6.502;2022-10-18T01:58:10;13.30;99.90
58261;DHT22;44058;52.898;6.502;2022-10-18T02:00:40;13.20;99.90
58261;DHT22;44058;52.898;6.502;2022-10-18T02:03:27;13.10;99.90
58261;DHT22;44058;52.898;6.502;2022-10-18T02:05:54;13.20;99.90
58261;DHT22;44058;52.898;6.502;2022-10-18T02:10:56;13.20;99.90
58261;DHT22;44058;52.898;6.502;2022-10-18T02:13:24;13.30;99.90
58261;DHT22;44058;52.898;6.502;2022-10-18T02:15:52;13.30;99.90
58261;DHT22;44058;52.898;6.502;2022-10-18T02:18:22;13.30;99.90
58261;DHT22;44058;52.898;6.502;2022-10-18T02:20:48;13.20;99.90
58261;DHT22;44058;52.898;6.502;2022-10-18T02:23:16;13.20;99.90
58261;DHT22;44058;52.898;6.502;2022-10-18T02:25:44;13.20;99.90
58261;DHT22;44058;52.898;6.502;2022-10-18T02:28:09;13.20;99.90
58261;DHT22;44058;52.898;6.502;2022-10-18T02:33:33;13.10;99.90
58261;DHT22;44058;52.898;6.502;2022-10-18T02:36:03;13.10;99.90
58261;DHT22;44058;52.898;6.502;2022-10-18T02:38:30;13.00;99.90
58261;DHT22;44058;52.898;6.502;2022-10-18T02:40:57;13.10;99.90
58261;DHT22;44058;52.898;6.502;2022-10-18T02:43:23;13.10;99.90
58261;DHT22;44058;52.898;6.502;2022-10-18T02:45:49;13.10;99.90
58261;DHT22;44058;52.898;6.502;2022-10-18T02:48:15;13.20;99.90
58261;DHT22;44058;52.898;6.502;2022-10-18T02:50:40;13.20;99.90
58261;DHT22;44058;52.898;6.502;2022-10-18T02:53:06;13.20;99.90
58261;DHT22;44058;52.898;6.502;2022-10-18T02:55:31;13.20;99.90
58261;DHT22;44058;52.898;6.502;2022-10-18T02:57:57;13.20;99.90
58261;DHT22;44058;52.898;6.502;2022-10-18T03:00:23;13.30;99.90
58261;DHT22;44058;52.898;6.502;2022-10-18T03:02:49;13.20;99.90
58261;DHT22;44058;52.898;6.502;2022-10-18T03:05:14;13.20;99.90
58261;DHT22;44058;52.898;6.502;2022-10-18T03:07:40;13.20;99.90
58261;DHT22;44058;52.898;6.502;2022-10-18T03:10:06;13.20;99.90
58261;DHT22;44058;52.898;6.502;2022-10-18T03:12:33;13.20;99.90
58261;DHT22;44058;52.898;6.502;2022-10-18T03:14:58;13.20;99.90
58261;DHT22;44058;52.898;6.502;2022-10-18T03:17:24;13.20;99.90
58261;DHT22;44058;52.898;6.502;2022-10-18T03:19:49;13.20;99.90
58261;DHT22;44058;52.898;6.502;2022-10-18T03:22:15;13.10;99.90
58261;DHT22;44058;52.898;6.502;2022-10-18T03:24:41;13.10;99.90
58261;DHT22;44058;52.898;6.502;2022-10-18T03:27:06;13.10;99.90
58261;DHT22;44058;52.898;6.502;2022-10-18T03:29:32;13.10;99.90
58261;DHT22;44058;52.898;6.502;2022-10-18T03:31:57;13.10;99.90
58261;DHT22;44058;52.898;6.502;2022-10-18T03:34:23;13.10;99.90
58261;DHT22;44058;52.898;6.502;2022-10-18T03:36:48;13.10;99.90
58261;DHT22;44058;52.898;6.502;2022-10-18T03:39:15;13.10;99.90
58261;DHT22;44058;52.898;6.502;2022-10-18T03:41:40;13.10;99.90
58261;DHT22;44058;52.898;6.502;2022-10-18T03:44:06;13.10;99.90
58261;DHT22;44058;52.898;6.502;2022-10-18T03:46:32;13.10;99.90
58261;DHT22;44058;52.898;6.502;2022-10-18T03:48:57;13.10;99.90
58261;DHT22;44058;52.898;6.502;2022-10-18T03:51:23;13.10;99.90
58261;DHT22;44058;52.898;6.502;2022-10-18T03:53:48;13.10;99.90
58261;DHT22;44058;52.898;6.502;2022-10-18T03:56:14;13.10;99.90
58261;DHT22;44058;52.898;6.502;2022-10-18T03:58:39;13.10;99.90
58261;DHT22;44058;52.898;6.502;2022-10-18T04:01:05;13.10;99.90
58261;DHT22;44058;52.898;6.502;2022-10-18T04:03:31;13.10;99.90
58261;DHT22;44058;52.898;6.502;2022-10-18T04:05:57;13.10;99.90
58261;DHT22;44058;52.898;6.502;2022-10-18T04:08:24;13.00;99.90
58261;DHT22;44058;52.898;6.502;2022-10-18T04:10:50;13.00;99.90
58261;DHT22;44058;52.898;6.502;2022-10-18T04:13:16;13.00;99.90
58261;DHT22;44058;52.898;6.502;2022-10-18T04:15:42;13.00;99.90
58261;DHT22;44058;52.898;6.502;2022-10-18T04:18:08;13.00;99.90
58261;DHT22;44058;52.898;6.502;2022-10-18T04:20:33;13.00;99.90
58261;DHT22;44058;52.898;6.502;2022-10-18T04:22:59;13.00;99.90
58261;DHT22;44058;52.898;6.502;2022-10-18T04:25:24;12.90;99.90
58261;DHT22;44058;52.898;6.502;2022-10-18T04:27:50;13.00;99.90
58261;DHT22;44058;52.898;6.502;2022-10-18T04:30:16;13.00;99.90
58261;DHT22;44058;52.898;6.502;2022-10-18T04:32:41;13.00;99.90
58261;DHT22;44058;52.898;6.502;2022-10-18T04:35:07;13.00;99.90
58261;DHT22;44058;52.898;6.502;2022-10-18T04:37:32;13.00;99.90
58261;DHT22;44058;52.898;6.502;2022-10-18T04:39:59;13.00;99.90
58261;DHT22;44058;52.898;6.502;2022-10-18T04:42:24;13.00;99.90
58261;DHT22;44058;52.898;6.502;2022-10-18T04:44:50;13.00;99.90
58261;DHT22;44058;52.898;6.502;2022-10-18T04:47:16;12.90;99.90
58261;DHT22;44058;52.898;6.502;2022-10-18T04:49:42;12.90;99.90
58261;DHT22;44058;52.898;6.502;2022-10-18T04:52:07;12.90;99.90
58261;DHT22;44058;52.898;6.502;2022-10-18T04:54:33;12.90;99.90
58261;DHT22;44058;52.898;6.502;2022-10-18T04:56:59;12.80;99.90
58261;DHT22;44058;52.898;6.502;2022-10-18T04:59:24;12.90;99.90
58261;DHT22;44058;52.898;6.502;2022-10-18T05:01:50;12.90;99.90
58261;DHT22;44058;52.898;6.502;2022-10-18T05:04:16;12.80;99.90
58261;DHT22;44058;52.898;6.502;2022-10-18T05:06:41;12.80;99.90
58261;DHT22;44058;52.898;6.502;2022-10-18T05:09:07;12.80;99.90
58261;DHT22;44058;52.898;6.502;2022-10-18T05:11:33;12.70;99.90
58261;DHT22;44058;52.898;6.502;2022-10-18T05:13:58;12.70;99.90
58261;DHT22;44058;52.898;6.502;2022-10-18T05:16:24;12.70;99.90
58261;DHT22;44058;52.898;6.502;2022-10-18T05:18:49;12.60;99.90
58261;DHT22;44058;52.898;6.502;2022-10-18T05:21:15;12.60;99.90
58261;DHT22;44058;52.898;6.502;2022-10-18T05:23:41;12.50;99.90
58261;DHT22;44058;52.898;6.502;2022-10-18T05:26:06;12.60;99.90
58261;DHT22;44058;52.898;6.502;2022-10-18T05:28:32;12.60;99.90
58261;DHT22;44058;52.898;6.502;2022-10-18T05:31:05;12.50;99.90
58261;DHT22;44058;52.898;6.502;2022-10-18T05:33:31;12.50;99.90
58261;DHT22;44058;52.898;6.502;2022-10-18T05:35:57;12.60;99.90
58261;DHT22;44058;52.898;6.502;2022-10-18T05:38:22;12.50;99.90
58261;DHT22;44058;52.898;6.502;2022-10-18T05:40:49;12.50;99.90
58261;DHT22;44058;52.898;6.502;2022-10-18T05:43:14;12.50;99.90
58261;DHT22;44058;52.898;6.502;2022-10-18T05:45:48;12.40;99.90
58261;DHT22;44058;52.898;6.502;2022-10-18T05:48:14;12.40;99.90
58261;DHT22;44058;52.898;6.502;2022-10-18T05:50:40;12.40;99.90
58261;DHT22;44058;52.898;6.502;2022-10-18T05:53:05;12.30;99.90
58261;DHT22;44058;52.898;6.502;2022-10-18T05:55:31;12.40;99.90
58261;DHT22;44058;52.898;6.502;2022-10-18T05:57:56;12.40;99.90
58261;DHT22;44058;52.898;6.502;2022-10-18T06:00:22;12.30;99.90
58261;DHT22;44058;52.898;6.502;2022-10-18T06:02:47;12.30;99.90
58261;DHT22;44058;52.898;6.502;2022-10-18T06:05:13;12.40;99.90
58261;DHT22;44058;52.898;6.502;2022-10-18T06:07:39;12.30;99.90
58261;DHT22;44058;52.898;6.502;2022-10-18T06:10:04;12.30;99.90
58261;DHT22;44058;52.898;6.502;2022-10-18T06:12:30;12.30;99.90
58261;DHT22;44058;52.898;6.502;2022-10-18T06:14:55;12.30;99.90
58261;DHT22;44058;52.898;6.502;2022-10-18T06:17:21;12.30;99.90
58261;DHT22;44058;52.898;6.502;2022-10-18T06:19:46;12.30;99.90
58261;DHT22;44058;52.898;6.502;2022-10-18T06:22:12;12.30;99.90
58261;DHT22;44058;52.898;6.502;2022-10-18T06:24:38;12.20;99.90
58261;DHT22;44058;52.898;6.502;2022-10-18T06:27:03;12.20;99.90
58261;DHT22;44058;52.898;6.502;2022-10-18T06:29:36;12.20;99.90
58261;DHT22;44058;52.898;6.502;2022-10-18T06:32:02;12.20;99.90
58261;DHT22;44058;52.898;6.502;2022-10-18T06:34:28;12.20;99.90
58261;DHT22;44058;52.898;6.502;2022-10-18T06:36:54;12.10;99.90
58261;DHT22;44058;52.898;6.502;2022-10-18T06:39:20;12.10;99.90
58261;DHT22;44058;52.898;6.502;2022-10-18T06:41:46;12.10;99.90
58261;DHT22;44058;52.898;6.502;2022-10-18T06:44:11;12.10;99.90
58261;DHT22;44058;52.898;6.502;2022-10-18T06:46:42;12.00;99.90
58261;DHT22;44058;52.898;6.502;2022-10-18T06:49:07;11.90;99.90
58261;DHT22;44058;52.898;6.502;2022-10-18T06:51:33;11.90;99.90
58261;DHT22;44058;52.898;6.502;2022-10-18T06:53:59;11.90;99.90
58261;DHT22;44058;52.898;6.502;2022-10-18T06:56:24;11.90;99.90
58261;DHT22;44058;52.898;6.502;2022-10-18T06:58:50;11.80;99.90
58261;DHT22;44058;52.898;6.502;2022-10-18T07:01:16;11.80;99.90
58261;DHT22;44058;52.898;6.502;2022-10-18T07:03:42;11.70;99.90
58261;DHT22;44058;52.898;6.502;2022-10-18T07:06:09;11.60;99.90
58261;DHT22;44058;52.898;6.502;2022-10-18T07:08:35;11.60;99.90
58261;DHT22;44058;52.898;6.502;2022-10-18T07:11:01;11.50;99.90
58261;DHT22;44058;52.898;6.502;2022-10-18T07:13:28;11.50;99.90
58261;DHT22;44058;52.898;6.502;2022-10-18T07:16:02;11.40;99.90
58261;DHT22;44058;52.898;6.502;2022-10-18T07:18:28;11.40;99.90
58261;DHT22;44058;52.898;6.502;2022-10-18T07:20:53;11.40;99.90
58261;DHT22;44058;52.898;6.502;2022-10-18T07:23:19;11.50;99.90
58261;DHT22;44058;52.898;6.502;2022-10-18T07:25:45;11.50;99.90
58261;DHT22;44058;52.898;6.502;2022-10-18T07:28:11;11.60;99.90
58261;DHT22;44058;52.898;6.502;2022-10-18T07:30:37;11.60;99.90
58261;DHT22;44058;52.898;6.502;2022-10-18T07:33:02;11.60;99.90
58261;DHT22;44058;52.898;6.502;2022-10-18T07:35:28;11.60;99.90
58261;DHT22;44058;52.898;6.502;2022-10-18T07:37:54;11.70;99.90
58261;DHT22;44058;52.898;6.502;2022-10-18T07:40:19;11.70;99.90
58261;DHT22;44058;52.898;6.502;2022-10-18T07:42:46;11.70;99.90
58261;DHT22;44058;52.898;6.502;2022-10-18T07:45:11;11.70;99.90
58261;DHT22;44058;52.898;6.502;2022-10-18T07:47:38;11.80;99.90
58261;DHT22;44058;52.898;6.502;2022-10-18T07:50:03;11.80;99.90
58261;DHT22;44058;52.898;6.502;2022-10-18T07:52:29;11.80;99.90
58261;DHT22;44058;52.898;6.502;2022-10-18T07:54:55;11.90;99.90
58261;DHT22;44058;52.898;6.502;2022-10-18T07:57:20;11.90;99.90
58261;DHT22;44058;52.898;6.502;2022-10-18T07:59:47;11.90;99.90
58261;DHT22;44058;52.898;6.502;2022-10-18T08:02:16;11.90;99.90
58261;DHT22;44058;52.898;6.502;2022-10-18T08:04:42;12.00;99.90
58261;DHT22;44058;52.898;6.502;2022-10-18T08:07:07;12.00;99.90
58261;DHT22;44058;52.898;6.502;2022-10-18T08:09:33;12.10;99.90
58261;DHT22;44058;52.898;6.502;2022-10-18T08:11:59;12.00;99.90
58261;DHT22;44058;52.898;6.502;2022-10-18T08:14:24;12.10;99.90
58261;DHT22;44058;52.898;6.502;2022-10-18T08:16:50;12.00;99.90
58261;DHT22;44058;52.898;6.502;2022-10-18T08:19:15;12.10;99.90
58261;DHT22;44058;52.898;6.502;2022-10-18T08:21:41;12.20;99.90
58261;DHT22;44058;52.898;6.502;2022-10-18T08:24:06;12.20;99.90
58261;DHT22;44058;52.898;6.502;2022-10-18T08:26:32;12.20;99.90
58261;DHT22;44058;52.898;6.502;2022-10-18T08:28:58;12.20;99.90
58261;DHT22;44058;52.898;6.502;2022-10-18T08:31:23;12.30;99.90
58261;DHT22;44058;52.898;6.502;2022-10-18T08:33:49;12.30;99.90
58261;DHT22;44058;52.898;6.502;2022-10-18T08:36:15;12.30;99.90
58261;DHT22;44058;52.898;6.502;2022-10-18T08:38:41;12.30;99.90
58261;DHT22;44058;52.898;6.502;2022-10-18T08:41:19;12.40;99.90
58261;DHT22;44058;52.898;6.502;2022-10-18T08:46:35;12.60;99.90
58261;DHT22;44058;52.898;6.502;2022-10-18T08:49:01;12.60;99.90
58261;DHT22;44058;52.898;6.502;2022-10-18T08:54:07;12.70;99.90
58261;DHT22;44058;52.898;6.502;2022-10-18T08:56:34;12.90;99.90
58261;DHT22;44058;52.898;6.502;2022-10-18T08:59:01;13.10;99.90
58261;DHT22;44058;52.898;6.502;2022-10-18T09:14:24;14.60;99.90
58261;DHT22;44058;52.898;6.502;2022-10-18T09:19:45;15.00;99.90
58261;DHT22;44058;52.898;6.502;2022-10-18T09:22:19;15.40;99.90
58261;DHT22;44058;52.898;6.502;2022-10-18T09:27:36;15.70;99.90
58261;DHT22;44058;52.898;6.502;2022-10-18T09:35:04;16.10;99.90
58261;DHT22;44058;52.898;6.502;2022-10-18T09:37:36;16.10;99.90
58261;DHT22;44058;52.898;6.502;2022-10-18T09:40:03;16.30;99.90
58261;DHT22;44058;52.898;6.502;2022-10-18T09:42:35;16.50;99.90
58261;DHT22;44058;52.898;6.502;2022-10-18T09:45:05;16.40;99.90
58261;DHT22;44058;52.898;6.502;2022-10-18T09:47:54;16.40;99.90
58261;DHT22;44058;52.898;6.502;2022-10-18T09:50:25;16.50;99.90
58261;DHT22;44058;52.898;6.502;2022-10-18T09:52:56;16.70;99.90
58261;DHT22;44058;52.898;6.502;2022-10-18T09:55:27;16.70;99.90
58261;DHT22;44058;52.898;6.502;2022-10-18T09:57:58;16.80;99.90
58261;DHT22;44058;52.898;6.502;2022-10-18T10:00:27;16.90;99.90
58261;DHT22;44058;52.898;6.502;2022-10-18T10:02:57;16.90;99.90
58261;DHT22;44058;52.898;6.502;2022-10-18T10:05:24;16.90;99.90
58261;DHT22;44058;52.898;6.502;2022-10-18T10:07:51;16.90;99.90
58261;DHT22;44058;52.898;6.502;2022-10-18T10:10:22;16.80;99.90
58261;DHT22;44058;52.898;6.502;2022-10-18T10:13:01;16.80;99.90
58261;DHT22;44058;52.898;6.502;2022-10-18T10:15:27;16.70;99.90
58261;DHT22;44058;52.898;6.502;2022-10-18T10:17:57;16.60;99.90
58261;DHT22;44058;52.898;6.502;2022-10-18T10:20:32;16.70;99.90
58261;DHT22;44058;52.898;6.502;2022-10-18T10:23:05;16.70;99.90
58261;DHT22;44058;52.898;6.502;2022-10-18T10:25:32;16.80;99.90
58261;DHT22;44058;52.898;6.502;2022-10-18T10:28:02;16.90;99.90
58261;DHT22;44058;52.898;6.502;2022-10-18T10:30:35;17.00;99.90
58261;DHT22;44058;52.898;6.502;2022-10-18T10:33:01;16.90;99.90
58261;DHT22;44058;52.898;6.502;2022-10-18T10:37:56;16.70;99.90
58261;DHT22;44058;52.898;6.502;2022-10-18T10:40:22;16.70;99.90
58261;DHT22;44058;52.898;6.502;2022-10-18T10:45:19;16.90;99.90
58261;DHT22;44058;52.898;6.502;2022-10-18T10:47:44;17.00;99.90
58261;DHT22;44058;52.898;6.502;2022-10-18T10:50:10;16.80;99.90
58261;DHT22;44058;52.898;6.502;2022-10-18T10:52:36;16.90;99.90
58261;DHT22;44058;52.898;6.502;2022-10-18T10:55:04;16.70;99.90
58261;DHT22;44058;52.898;6.502;2022-10-18T10:57:30;16.50;99.90
58261;DHT22;44058;52.898;6.502;2022-10-18T10:59:57;16.40;99.90
58261;DHT22;44058;52.898;6.502;2022-10-18T11:02:33;16.30;99.90
58261;DHT22;44058;52.898;6.502;2022-10-18T11:07:43;16.00;99.90
58261;DHT22;44058;52.898;6.502;2022-10-18T11:10:11;15.90;99.90
58261;DHT22;44058;52.898;6.502;2022-10-18T11:15:39;15.80;99.90
58261;DHT22;44058;52.898;6.502;2022-10-18T11:18:09;15.90;99.90
58261;DHT22;44058;52.898;6.502;2022-10-18T11:23:10;16.20;99.90
58261;DHT22;44058;52.898;6.502;2022-10-18T11:28:03;16.50;99.90
58261;DHT22;44058;52.898;6.502;2022-10-18T11:30:46;16.70;99.90
58261;DHT22;44058;52.898;6.502;2022-10-18T11:33:21;16.80;99.90
58261;DHT22;44058;52.898;6.502;2022-10-18T11:35:50;17.00;99.90
58261;DHT22;44058;52.898;6.502;2022-10-18T11:38:30;17.10;99.90
58261;DHT22;44058;52.898;6.502;2022-10-18T11:41:05;17.10;99.90
58261;DHT22;44058;52.898;6.502;2022-10-18T11:46:12;17.20;99.90
58261;DHT22;44058;52.898;6.502;2022-10-18T11:51:09;17.10;99.90
58261;DHT22;44058;52.898;6.502;2022-10-18T12:01:40;17.20;99.90
58261;DHT22;44058;52.898;6.502;2022-10-18T12:04:15;17.30;99.90
58261;DHT22;44058;52.898;6.502;2022-10-18T12:06:43;17.40;99.90
58261;DHT22;44058;52.898;6.502;2022-10-18T12:09:16;17.40;99.90
58261;DHT22;44058;52.898;6.502;2022-10-18T12:11:49;17.40;99.90
58261;DHT22;44058;52.898;6.502;2022-10-18T12:14:20;17.50;99.90
58261;DHT22;44058;52.898;6.502;2022-10-18T12:16:48;17.60;99.90
58261;DHT22;44058;52.898;6.502;2022-10-18T12:19:19;17.70;99.90
58261;DHT22;44058;52.898;6.502;2022-10-18T12:21:45;17.70;99.90
58261;DHT22;44058;52.898;6.502;2022-10-18T12:24:12;17.50;99.90
58261;DHT22;44058;52.898;6.502;2022-10-18T12:26:40;17.50;99.90
58261;DHT22;44058;52.898;6.502;2022-10-18T12:31:51;17.40;99.90
58261;DHT22;44058;52.898;6.502;2022-10-18T12:34:23;17.50;99.90
58261;DHT22;44058;52.898;6.502;2022-10-18T12:39:36;17.50;99.90
58261;DHT22;44058;52.898;6.502;2022-10-18T12:42:03;17.50;99.90
58261;DHT22;44058;52.898;6.502;2022-10-18T12:44:30;17.30;99.90
58261;DHT22;44058;52.898;6.502;2022-10-18T12:46:57;17.20;99.90
58261;DHT22;44058;52.898;6.502;2022-10-18T12:49:27;17.00;99.90
58261;DHT22;44058;52.898;6.502;2022-10-18T12:51:54;16.70;99.90
58261;DHT22;44058;52.898;6.502;2022-10-18T12:54:24;16.70;99.90
58261;DHT22;44058;52.898;6.502;2022-10-18T12:56:51;16.70;99.90
58261;DHT22;44058;52.898;6.502;2022-10-18T13:04:50;16.90;99.90
58261;DHT22;44058;52.898;6.502;2022-10-18T13:09:35;16.90;99.90
58261;DHT22;44058;52.898;6.502;2022-10-18T13:17:14;16.30;99.90
58261;DHT22;44058;52.898;6.502;2022-10-18T13:19:49;16.30;99.90
58261;DHT22;44058;52.898;6.502;2022-10-18T13:29:54;17.00;99.90
58261;DHT22;44058;52.898;6.502;2022-10-18T13:32:38;17.20;99.90
58261;DHT22;44058;52.898;6.502;2022-10-18T13:38:00;17.50;99.90
58261;DHT22;44058;52.898;6.502;2022-10-18T13:40:26;17.40;99.90
58261;DHT22;44058;52.898;6.502;2022-10-18T13:42:52;17.20;99.90
58261;DHT22;44058;52.898;6.502;2022-10-18T13:45:52;17.00;99.90
58261;DHT22;44058;52.898;6.502;2022-10-18T13:48:42;16.80;99.90
58261;DHT22;44058;52.898;6.502;2022-10-18T13:51:02;16.50;99.90
58261;DHT22;44058;52.898;6.502;2022-10-18T13:53:37;16.40;99.90
58261;DHT22;44058;52.898;6.502;2022-10-18T14:01:31;16.50;99.90
58261;DHT22;44058;52.898;6.502;2022-10-18T14:11:30;16.80;99.90
58261;DHT22;44058;52.898;6.502;2022-10-18T14:14:11;17.00;99.90
58261;DHT22;44058;52.898;6.502;2022-10-18T14:16:58;17.10;99.90
58261;DHT22;44058;52.898;6.502;2022-10-18T14:19:32;17.20;99.90
58261;DHT22;44058;52.898;6.502;2022-10-18T14:24:37;17.30;99.90
58261;DHT22;44058;52.898;6.502;2022-10-18T14:27:14;17.40;99.90
58261;DHT22;44058;52.898;6.502;2022-10-18T14:29:40;17.50;99.90
58261;DHT22;44058;52.898;6.502;2022-10-18T14:32:07;17.60;99.90
58261;DHT22;44058;52.898;6.502;2022-10-18T14:34:34;17.60;99.90
58261;DHT22;44058;52.898;6.502;2022-10-18T14:37:00;17.60;99.90
58261;DHT22;44058;52.898;6.502;2022-10-18T14:39:26;17.60;99.90
58261;DHT22;44058;52.898;6.502;2022-10-18T14:41:55;17.50;99.90
58261;DHT22;44058;52.898;6.502;2022-10-18T14:44:28;17.50;99.90
58261;DHT22;44058;52.898;6.502;2022-10-18T14:49:20;17.30;99.90
58261;DHT22;44058;52.898;6.502;2022-10-18T14:51:50;17.20;99.90
58261;DHT22;44058;52.898;6.502;2022-10-18T14:54:22;17.20;99.90
58261;DHT22;44058;52.898;6.502;2022-10-18T14:56:47;17.10;99.90
58261;DHT22;44058;52.898;6.502;2022-10-18T14:59:15;17.10;99.90
58261;DHT22;44058;52.898;6.502;2022-10-18T15:02:02;17.20;99.90
58261;DHT22;44058;52.898;6.502;2022-10-18T15:04:30;17.40;99.90
58261;DHT22;44058;52.898;6.502;2022-10-18T15:06:59;17.50;99.90
58261;DHT22;44058;52.898;6.502;2022-10-18T15:09:25;17.60;99.90
58261;DHT22;44058;52.898;6.502;2022-10-18T15:11:51;17.90;99.90
58261;DHT22;44058;52.898;6.502;2022-10-18T15:14:19;18.00;99.90
58261;DHT22;44058;52.898;6.502;2022-10-18T15:16:45;18.30;99.90
58261;DHT22;44058;52.898;6.502;2022-10-18T15:21:53;18.30;99.90
58261;DHT22;44058;52.898;6.502;2022-10-18T15:26:50;18.30;99.90
58261;DHT22;44058;52.898;6.502;2022-10-18T15:29:18;18.10;99.90
58261;DHT22;44058;52.898;6.502;2022-10-18T15:31:44;17.90;99.90
58261;DHT22;44058;52.898;6.502;2022-10-18T15:34:26;17.70;99.90
58261;DHT22;44058;52.898;6.502;2022-10-18T15:36:53;17.50;99.90
58261;DHT22;44058;52.898;6.502;2022-10-18T15:39:20;17.30;99.90
58261;DHT22;44058;52.898;6.502;2022-10-18T15:41:52;17.20;99.90
58261;DHT22;44058;52.898;6.502;2022-10-18T15:44:24;17.00;99.90
58261;DHT22;44058;52.898;6.502;2022-10-18T15:46:51;16.90;99.90
58261;DHT22;44058;52.898;6.502;2022-10-18T15:54:30;16.40;99.90
58261;DHT22;44058;52.898;6.502;2022-10-18T15:56:56;16.20;99.90
58261;DHT22;44058;52.898;6.502;2022-10-18T15:59:22;16.20;99.90
58261;DHT22;44058;52.898;6.502;2022-10-18T16:01:48;16.10;99.90
58261;DHT22;44058;52.898;6.502;2022-10-18T16:04:32;16.00;99.90
58261;DHT22;44058;52.898;6.502;2022-10-18T16:06:58;16.00;99.90
58261;DHT22;44058;52.898;6.502;2022-10-18T16:09:25;16.00;99.90
58261;DHT22;44058;52.898;6.502;2022-10-18T16:11:51;16.00;99.90
58261;DHT22;44058;52.898;6.502;2022-10-18T16:14:17;16.00;99.90
58261;DHT22;44058;52.898;6.502;2022-10-18T16:16:43;15.90;99.90
58261;DHT22;44058;52.898;6.502;2022-10-18T16:19:12;15.90;99.90
58261;DHT22;44058;52.898;6.502;2022-10-18T16:21:38;15.80;99.90
58261;DHT22;44058;52.898;6.502;2022-10-18T16:24:04;15.80;99.90
58261;DHT22;44058;52.898;6.502;2022-10-18T16:26:30;15.70;99.90
58261;DHT22;44058;52.898;6.502;2022-10-18T16:28:56;15.70;99.90
58261;DHT22;44058;52.898;6.502;2022-10-18T16:31:25;15.60;99.90
58261;DHT22;44058;52.898;6.502;2022-10-18T16:33:51;15.50;99.90
58261;DHT22;44058;52.898;6.502;2022-10-18T16:36:21;15.50;99.90
58261;DHT22;44058;52.898;6.502;2022-10-18T16:38:48;15.40;99.90
58261;DHT22;44058;52.898;6.502;2022-10-18T16:41:14;15.40;99.90
58261;DHT22;44058;52.898;6.502;2022-10-18T16:43:40;15.40;99.90
58261;DHT22;44058;52.898;6.502;2022-10-18T16:46:06;15.30;99.90
58261;DHT22;44058;52.898;6.502;2022-10-18T16:48:34;15.30;99.90
58261;DHT22;44058;52.898;6.502;2022-10-18T16:50:59;15.30;99.90
58261;DHT22;44058;52.898;6.502;2022-10-18T16:53:26;15.30;99.90
58261;DHT22;44058;52.898;6.502;2022-10-18T16:55:56;15.20;99.90
58261;DHT22;44058;52.898;6.502;2022-10-18T16:58:22;15.10;99.90
58261;DHT22;44058;52.898;6.502;2022-10-18T17:01:12;15.10;99.90
58261;DHT22;44058;52.898;6.502;2022-10-18T17:03:38;15.00;99.90
58261;DHT22;44058;52.898;6.502;2022-10-18T17:06:04;15.00;99.90
58261;DHT22;44058;52.898;6.502;2022-10-18T17:08:50;15.00;99.90
58261;DHT22;44058;52.898;6.502;2022-10-18T17:11:36;14.90;99.90
58261;DHT22;44058;52.898;6.502;2022-10-18T17:14:21;14.90;99.90
58261;DHT22;44058;52.898;6.502;2022-10-18T17:16:47;14.90;99.90
58261;DHT22;44058;52.898;6.502;2022-10-18T17:19:12;14.90;99.90
58261;DHT22;44058;52.898;6.502;2022-10-18T17:21:39;14.90;99.90
58261;DHT22;44058;52.898;6.502;2022-10-18T17:24:04;14.80;99.90
58261;DHT22;44058;52.898;6.502;2022-10-18T17:26:30;14.90;99.90
58261;DHT22;44058;52.898;6.502;2022-10-18T17:28:57;14.80;99.90
58261;DHT22;44058;52.898;6.502;2022-10-18T17:31:23;14.80;99.90
58261;DHT22;44058;52.898;6.502;2022-10-18T17:33:49;14.80;99.90
58261;DHT22;44058;52.898;6.502;2022-10-18T17:36:15;14.70;99.90
58261;DHT22;44058;52.898;6.502;2022-10-18T17:38:40;14.70;99.90
58261;DHT22;44058;52.898;6.502;2022-10-18T17:41:07;14.60;99.90
58261;DHT22;44058;52.898;6.502;2022-10-18T17:43:33;14.60;99.90